Time;durP1;ratioP1;P1;durP2;ratioP2;P2;SDS_P1;SDS_P2;PMS_P1;PMS_P2;Temp;Humidity;BMP_temperature;BMP_pressure;BME280_temperature;BME280_humidity;BME280_pressure;Samples;Min_cycle;Max_cycle;Signal;HPM_P1;HPM_P2
2022/03/02 00:00:43;;;;;;;17.55;11.48;;;;;;;2.44;64.75;99919.72;5010147;28;20462;-73
2022/03/02 00:03:09;;;;;;;17.05;11.15;;;;;;;2.39;64.86;99903.59;5010800;28;20117;-72
2022/03/02 00:05:36;;;;;;;16.15;10.32;;;;;;;2.42;64.27;99910.34;5011164;28;20116;-73
2022/03/02 00:08:03;;;;;;;18.67;11.43;;;;;;;2.41;64.54;99913.94;5007215;28;20042;-73
2022/03/02 00:10:29;;;;;;;19.23;11.65;;;;;;;2.41;64.56;99914.78;4990894;28;20112;-72
2022/03/02 00:12:54;;;;;;;17.10;10.38;;;;;;;2.41;65.05;99908.69;5010569;28;20129;-73
2022/03/02 00:15:19;;;;;;;20.83;11.82;;;;;;;2.39;65.09;99908.88;5010507;28;20034;-72
2022/03/02 00:17:45;;;;;;;16.17;9.85;;;;;;;2.40;64.96;99907.06;5010714;28;20080;-72
2022/03/02 00:20:10;;;;;;;17.67;10.88;;;;;;;2.38;65.09;99907.22;5007298;28;20493;-73
2022/03/02 00:22:36;;;;;;;17.52;10.20;;;;;;;2.32;64.76;99894.72;5018597;28;20034;-73
2022/03/02 00:25:02;;;;;;;15.85;11.27;;;;;;;2.36;64.81;99898.66;5011213;28;20018;-73
2022/03/02 00:27:27;;;;;;;15.52;10.45;;;;;;;2.27;65.04;99899.69;5010749;28;20025;-73
2022/03/02 00:29:52;;;;;;;17.50;11.85;;;;;;;2.31;65.24;99898.38;5007663;28;20042;-74
2022/03/02 00:32:18;;;;;;;18.98;12.27;;;;;;;2.28;65.24;99886.34;5011313;28;20052;-73
2022/03/02 00:34:43;;;;;;;18.30;11.52;;;;;;;2.32;65.04;99902.63;5010971;28;20026;-74
2022/03/02 00:37:09;;;;;;;15.13;10.73;;;;;;;2.20;65.11;99888.19;5012065;28;20041;-74
2022/03/02 00:39:35;;;;;;;15.07;10.65;;;;;;;2.26;64.89;99909.41;4997215;28;20034;-75
2022/03/02 00:42:01;;;;;;;15.13;10.23;;;;;;;2.26;65.09;99905.94;5011067;28;20136;-74
2022/03/02 00:44:26;;;;;;;17.17;11.48;;;;;;;2.24;65.32;99895.59;4997098;28;20105;-74
2022/03/02 00:46:52;;;;;;;17.83;11.80;;;;;;;2.24;65.27;99895.59;5009975;28;20645;-74
2022/03/02 00:49:17;;;;;;;18.67;11.40;;;;;;;2.20;65.50;99898.72;5016202;28;20063;-74
2022/03/02 00:51:43;;;;;;;19.33;11.35;;;;;;;2.22;65.38;99891.47;5014564;28;21693;-74
2022/03/02 00:54:09;;;;;;;22.40;11.60;;;;;;;2.20;65.52;99893.47;5014144;28;20761;-73
2022/03/02 00:56:35;;;;;;;17.40;11.20;;;;;;;2.12;65.33;99886.38;5014363;28;20113;-74
2022/03/02 00:59:00;;;;;;;19.63;11.68;;;;;;;2.10;65.46;99887.53;5014363;28;20113;-74
2022/03/02 01:01:25;;;;;;;18.75;11.68;;;;;;;2.13;65.47;99892.47;4996725;28;20117;-74
2022/03/02 01:03:51;;;;;;;21.52;11.43;;;;;;;2.09;65.73;99881.47;4996800;28;20030;-73
2022/03/02 01:06:17;;;;;;;17.27;11.38;;;;;;;2.05;65.24;99872.25;5013780;28;20433;-74
2022/03/02 01:08:43;;;;;;;14.70;10.10;;;;;;;2.08;65.37;99879.00;5014332;28;20518;-74
2022/03/02 01:11:09;;;;;;;17.30;11.57;;;;;;;2.08;65.58;99881.63;5014569;28;20125;-74
2022/03/02 01:13:34;;;;;;;17.70;11.57;;;;;;;2.07;65.59;99886.09;5014818;28;20075;-74
2022/03/02 01:16:00;;;;;;;18.67;11.32;;;;;;;2.03;65.33;99886.59;5013874;28;20034;-74
2022/03/02 01:18:26;;;;;;;15.85;10.77;;;;;;;2.03;65.77;99890.03;5013971;28;20026;-74
2022/03/02 01:20:51;;;;;;;17.30;11.02;;;;;;;1.99;65.72;99877.38;5013247;28;20034;-73
2022/03/02 01:23:19;;;;;;;19.27;11.10;;;;;;;1.96;65.79;99867.19;5014019;28;20080;-74
2022/03/02 01:25:45;;;;;;;20.55;12.07;;;;;;;2.01;65.52;99872.78;4996675;28;20022;-73
2022/03/02 01:28:10;;;;;;;17.67;11.45;;;;;;;2.01;65.64;99875.41;4995973;28;20056;-74
2022/03/02 01:30:35;;;;;;;17.55;11.10;;;;;;;2.01;65.87;99870.16;5013967;28;20444;-73
2022/03/02 01:33:00;;;;;;;17.65;11.13;;;;;;;1.93;65.71;99865.72;4980372;28;20128;-74
2022/03/02 01:35:26;;;;;;;14.98;10.38;;;;;;;1.92;65.65;99853.53;4977401;28;20044;-74
2022/03/02 01:37:51;;;;;;;18.08;11.68;;;;;;;1.95;65.87;99860.28;4988958;28;20034;-74
2022/03/02 01:40:17;;;;;;;25.88;11.63;;;;;;;1.93;65.63;99860.44;5028820;28;20034;-74
2022/03/02 01:42:43;;;;;;;16.15;11.82;;;;;;;1.90;65.74;99852.09;5016704;28;20052;-74
2022/03/02 01:45:10;;;;;;;20.05;10.73;;;;;;;1.91;65.63;99867.69;5007930;28;20040;-75
2022/03/02 01:47:36;;;;;;;16.05;10.35;;;;;;;1.90;65.71;99857.34;5013189;28;20030;-74
2022/03/02 01:50:03;;;;;;;17.58;11.75;;;;;;;1.82;65.72;99854.72;5020846;28;20489;-73
2022/03/02 01:52:30;;;;;;;18.55;11.05;;;;;;;1.86;66.31;99854.22;4996210;28;20117;-73
2022/03/02 01:54:55;;;;;;;19.25;11.68;;;;;;;1.86;65.97;99859.47;5012818;28;20037;-73
2022/03/02 01:57:21;;;;;;;19.67;11.85;;;;;;;1.86;66.28;99859.47;5013593;28;20038;-73
2022/03/02 01:59:46;;;;;;;17.23;10.70;;;;;;;1.87;66.26;99855.03;5013291;28;20026;-74
2022/03/02 02:02:12;;;;;;;15.27;10.80;;;;;;;1.83;65.79;99851.94;5013408;28;20030;-73
2022/03/02 02:04:37;;;;;;;16.10;10.60;;;;;;;1.82;66.21;99836.28;4995152;28;20124;-73
2022/03/02 02:07:03;;;;;;;16.25;10.50;;;;;;;1.82;65.98;99842.38;5011882;28;20067;-73
2022/03/02 02:09:28;;;;;;;23.20;12.60;;;;;;;1.76;66.32;99823.81;5010550;28;20103;-73
2022/03/02 02:11:54;;;;;;;14.65;10.63;;;;;;;1.80;65.68;99841.72;5016328;28;20036;-73
2022/03/02 02:14:19;;;;;;;16.67;11.38;;;;;;;1.79;65.85;99831.38;4994194;28;20041;-73
2022/03/02 02:16:44;;;;;;;21.38;11.82;;;;;;;1.78;65.81;99830.56;5011145;28;20038;-73
2022/03/02 02:19:10;;;;;;;17.58;10.82;;;;;;;1.77;66.28;99830.72;5012058;28;20163;-73
2022/03/02 02:21:35;;;;;;;16.95;11.10;;;;;;;1.75;66.20;99819.56;5011984;28;20060;-73
2022/03/02 02:24:01;;;;;;;16.90;10.98;;;;;;;1.71;66.34;99829.56;5012208;28;20026;-73
2022/03/02 02:26:26;;;;;;;15.95;10.63;;;;;;;1.72;66.45;99815.44;5011163;28;20026;-73
2022/03/02 02:28:52;;;;;;;15.30;11.10;;;;;;;1.72;65.82;99814.63;5010805;28;20080;-73
2022/03/02 02:31:18;;;;;;;19.40;11.60;;;;;;;1.69;66.52;99801.78;4994851;28;20084;-73
2022/03/02 02:33:43;;;;;;;18.00;11.10;;;;;;;1.72;66.05;99802.28;5011754;28;20029;-73
2022/03/02 02:36:08;;;;;;;18.45;11.60;;;;;;;1.75;66.17;99811.66;5010353;28;20431;-73
2022/03/02 02:38:34;;;;;;;14.80;9.95;;;;;;;1.75;65.97;99798.50;5010575;28;20524;-73
2022/03/02 02:40:59;;;;;;;15.50;11.20;;;;;;;1.71;66.15;99794.53;5010153;28;20041;-74
2022/03/02 02:43:26;;;;;;;17.80;11.18;;;;;;;1.74;66.50;99799.47;5008732;28;20033;-73
2022/03/02 02:45:52;;;;;;;16.92;10.77;;;;;;;1.71;66.30;99784.84;5009562;28;20107;-73
2022/03/02 02:48:17;;;;;;;20.20;11.85;;;;;;;1.76;66.51;99792.22;4992658;28;20495;-73
2022/03/02 02:50:42;;;;;;;17.63;10.95;;;;;;;1.76;66.41;99784.34;4992183;28;20042;-73
2022/03/02 02:53:09;;;;;;;14.50;10.57;;;;;;;1.75;66.35;99787.97;5009371;28;20049;-73
2022/03/02 02:55:36;;;;;;;18.98;11.68;;;;;;;1.77;66.45;99797.31;4991511;28;20033;-74
2022/03/02 02:58:03;;;;;;;19.30;11.93;;;;;;;1.74;66.47;99783.69;5010167;28;20050;-73
2022/03/02 03:00:33;;;;;;;17.58;11.75;;;;;;;1.77;66.07;99783.38;5008478;28;20033;-73
2022/03/02 03:03:00;;;;;;;15.90;11.40;;;;;;;1.75;66.05;99782.72;5009896;28;20040;-72
2022/03/02 03:05:29;;;;;;;17.85;11.40;;;;;;;1.78;66.26;99777.09;5008599;28;20018;-75
2022/03/02 03:07:55;;;;;;;14.88;10.77;;;;;;;1.77;66.51;99775.47;5008559;28;20040;-73
2022/03/02 03:10:21;;;;;;;20.83;12.63;;;;;;;1.79;66.80;99773.50;5009146;28;20037;-73
2022/03/02 03:12:47;;;;;;;18.88;10.88;;;;;;;1.77;66.13;99771.00;5003528;28;20033;-72
2022/03/02 03:15:15;;;;;;;19.00;11.75;;;;;;;1.77;66.30;99773.63;5008309;28;20030;-73
2022/03/02 03:17:41;;;;;;;20.50;10.95;;;;;;;1.79;66.14;99778.75;5007459;28;20449;-73
2022/03/02 03:20:09;;;;;;;11.70;9.38;;;;;;;1.77;66.34;99780.72;5011503;28;20041;-73
2022/03/02 03:22:34;;;;;;;15.50;10.38;;;;;;;1.78;66.67;99771.81;5010184;28;20116;-73
2022/03/02 03:25:00;;;;;;;18.02;10.68;;;;;;;1.77;66.35;99772.84;5010787;28;20081;-73
2022/03/02 03:27:26;;;;;;;19.73;11.38;;;;;;;1.79;66.46;99773.50;5007919;28;20030;-73
2022/03/02 03:29:52;;;;;;;16.95;11.40;;;;;;;1.76;66.76;99768.53;4992026;28;20038;-73
2022/03/02 03:32:17;;;;;;;16.52;11.25;;;;;;;1.71;66.97;99769.06;5008825;28;20140;-73
2022/03/02 03:34:43;;;;;;;17.73;12.02;;;;;;;1.76;66.29;99776.44;5008013;28;20079;-73
2022/03/02 03:37:08;;;;;;;16.70;9.88;;;;;;;1.78;67.08;99779.72;5010837;28;20041;-74
2022/03/02 03:39:34;;;;;;;15.10;10.45;;;;;;;1.78;67.05;99777.09;5008629;28;20040;-74
2022/03/02 03:41:59;;;;;;;22.23;11.93;;;;;;;1.79;66.59;99778.75;5007792;28;20402;-73
2022/03/02 03:44:25;;;;;;;17.90;11.18;;;;;;;1.80;66.77;99775.94;5009227;28;20026;-73
2022/03/02 03:46:51;;;;;;;14.70;9.73;;;;;;;1.83;66.79;99780.03;5007600;28;20024;-73
2022/03/02 03:49:16;;;;;;;18.00;10.07;;;;;;;1.81;66.59;99774.97;5008034;28;20038;-73
2022/03/02 03:51:41;;;;;;;14.65;9.77;;;;;;;1.83;67.13;99780.88;5007021;28;20026;-73
2022/03/02 03:54:08;;;;;;;16.38;10.68;;;;;;;1.86;66.70;99770.00;4991904;28;20043;-73
2022/03/02 03:56:33;;;;;;;15.45;10.55;;;;;;;1.86;67.20;99774.41;5008534;28;20056;-72
2022/03/02 03:58:59;;;;;;;13.80;10.23;;;;;;;1.87;66.56;99770.81;5009535;28;20030;-72
2022/03/02 04:01:25;;;;;;;16.80;10.65;;;;;;;1.88;67.25;99770.63;5008272;28;20048;-73
2022/03/02 04:03:50;;;;;;;19.17;11.13;;;;;;;1.89;66.90;99763.56;5008518;28;20038;-73
2022/03/02 04:06:16;;;;;;;18.48;11.82;;;;;;;1.89;67.18;99763.56;4992686;28;20018;-72
2022/03/02 04:08:41;;;;;;;16.23;10.80;;;;;;;1.80;66.89;99751.44;4991064;28;20041;-72
2022/03/02 04:11:07;;;;;;;16.20;10.88;;;;;;;1.91;66.93;99766.84;5009216;28;20030;-73
2022/03/02 04:13:32;;;;;;;17.65;11.32;;;;;;;1.90;66.64;99760.75;5011712;28;20056;-73
2022/03/02 04:15:58;;;;;;;18.77;10.75;;;;;;;1.85;66.84;99757.84;5012055;28;20040;-73
2022/03/02 04:18:23;;;;;;;14.95;10.35;;;;;;;1.84;66.37;99744.81;4994612;28;20049;-73
2022/03/02 04:20:49;;;;;;;19.25;11.48;;;;;;;1.85;66.44;99742.03;5013070;28;20087;-73
2022/03/02 04:23:14;;;;;;;17.88;10.10;;;;;;;1.87;67.21;99747.13;5013906;28;20429;-72
2022/03/02 04:25:40;;;;;;;21.45;11.98;;;;;;;1.87;67.09;99749.75;5012038;28;20025;-73
2022/03/02 04:28:05;;;;;;;17.90;11.27;;;;;;;1.90;66.72;99744.97;5010820;28;20449;-73
2022/03/02 04:30:31;;;;;;;16.50;11.45;;;;;;;1.91;66.86;99740.53;4996401;28;20041;-73
2022/03/02 04:32:58;;;;;;;16.23;10.30;;;;;;;1.83;66.99;99728.25;5012481;28;20030;-73
2022/03/02 04:35:23;;;;;;;13.82;11.15;;;;;;;1.91;67.00;99730.00;5008510;28;20026;-73
2022/03/02 04:37:50;;;;;;;19.15;11.23;;;;;;;1.93;67.04;99734.09;5012617;28;20026;-73
2022/03/02 04:40:16;;;;;;;18.45;10.43;;;;;;;1.91;67.22;99735.25;4994310;28;20060;-74
2022/03/02 04:42:43;;;;;;;17.08;10.15;;;;;;;1.91;67.02;99725.56;5012076;28;20065;-73
2022/03/02 04:45:09;;;;;;;18.33;10.90;;;;;;;1.91;66.86;99730.00;5011888;28;20048;-73
2022/03/02 04:47:34;;;;;;;18.50;11.70;;;;;;;1.92;67.20;99731.66;4993051;28;20038;-73
2022/03/02 04:50:00;;;;;;;16.90;11.13;;;;;;;1.88;67.24;99735.63;5009574;28;20034;-73
2022/03/02 04:52:25;;;;;;;18.52;12.50;;;;;;;1.88;67.04;99740.88;5012148;28;20026;-73
2022/03/02 04:55:05;;;;;;;16.65;11.30;;;;;;;1.87;67.20;99733.97;5006708;28;20038;-73
2022/03/02 04:57:48;;;;;;;14.70;10.25;;;;;;;1.80;67.69;99714.59;4993416;28;20569;-73
2022/03/02 05:00:20;;;;;;;20.67;11.18;;;;;;;1.85;67.86;99723.63;5011933;28;20046;-74
2022/03/02 05:02:45;;;;;;;21.15;12.48;;;;;;;1.87;67.32;99726.06;5011754;28;20482;-74
2022/03/02 05:05:14;;;;;;;17.33;10.70;;;;;;;1.83;67.24;99727.41;4976853;28;20042;-74
2022/03/02 05:07:41;;;;;;;22.08;11.35;;;;;;;1.86;67.63;99729.69;4980528;28;20061;-74
2022/03/02 05:10:08;;;;;;;16.58;11.40;;;;;;;1.84;67.63;99729.84;5020742;28;20029;-74
2022/03/02 05:12:35;;;;;;;19.35;12.02;;;;;;;1.84;67.34;99729.84;4983061;28;20077;-73
2022/03/02 05:15:00;;;;;;;17.08;11.20;;;;;;;1.82;67.08;99728.38;5008980;28;20121;-72
2022/03/02 05:17:26;;;;;;;20.55;11.48;;;;;;;1.78;67.78;99730.56;5010904;28;20026;-74
2022/03/02 05:19:51;;;;;;;15.02;9.88;;;;;;;1.79;67.96;99728.75;5022987;28;20095;-73
2022/03/02 05:22:17;;;;;;;19.35;11.77;;;;;;;1.78;67.28;99730.56;5013298;28;20034;-74
2022/03/02 05:24:42;;;;;;;16.58;11.65;;;;;;;1.79;67.91;99731.38;5012119;28;20033;-73
2022/03/02 05:27:08;;;;;;;18.23;11.93;;;;;;;1.76;67.29;99726.44;5012541;28;20033;-73
2022/03/02 05:29:35;;;;;;;19.85;13.15;;;;;;;1.78;67.34;99733.19;4994051;28;20017;-74
2022/03/02 05:32:00;;;;;;;18.65;12.27;;;;;;;1.78;67.72;99738.44;5009326;28;20046;-74
2022/03/02 05:34:26;;;;;;;20.13;11.00;;;;;;;1.80;68.00;99738.25;5012587;28;20026;-74
2022/03/02 05:36:51;;;;;;;20.02;13.77;;;;;;;1.74;68.10;99733.69;5006596;28;20663;-72
2022/03/02 05:39:20;;;;;;;17.88;11.40;;;;;;;1.77;67.30;99731.53;4975858;28;20029;-73
2022/03/02 05:41:52;;;;;;;28.60;12.85;;;;;;;1.75;67.59;99732.72;5011811;28;20030;-72
2022/03/02 05:44:19;;;;;;;20.92;11.43;;;;;;;1.74;67.37;99736.31;4981430;28;20510;-73
2022/03/02 05:46:44;;;;;;;23.33;13.30;;;;;;;1.75;67.78;99733.50;5012398;28;20030;-73
2022/03/02 05:49:10;;;;;;;20.10;12.60;;;;;;;1.71;67.54;99734.03;5012082;28;20075;-73
2022/03/02 05:51:36;;;;;;;22.63;12.98;;;;;;;1.72;68.04;99727.78;5012986;28;20029;-73
2022/03/02 05:54:04;;;;;;;22.08;13.20;;;;;;;1.68;67.92;99721.22;4997705;28;20045;-73
2022/03/02 05:56:30;;;;;;;21.17;13.25;;;;;;;1.77;67.57;99730.72;5013025;28;20754;-74
2022/03/02 05:58:56;;;;;;;21.35;13.43;;;;;;;1.70;67.64;99721.88;5010098;28;20029;-73
2022/03/02 06:01:21;;;;;;;22.63;13.55;;;;;;;1.76;67.67;99734.34;5018445;28;20064;-73
2022/03/02 06:03:47;;;;;;;19.77;12.57;;;;;;;1.71;67.58;99726.13;4995195;28;20026;-73
2022/03/02 06:06:12;;;;;;;22.33;12.80;;;;;;;1.77;68.21;99725.47;5012643;28;20096;-73
2022/03/02 06:08:39;;;;;;;19.08;12.40;;;;;;;1.78;68.09;99735.00;5008414;28;20467;-73
2022/03/02 06:11:04;;;;;;;18.58;13.15;;;;;;;1.77;68.03;99741.25;5013321;28;20044;-74
2022/03/02 06:13:30;;;;;;;20.23;12.45;;;;;;;1.74;68.31;99745.03;5019935;28;20041;-74
2022/03/02 06:15:57;;;;;;;17.13;10.95;;;;;;;1.78;68.01;99748.97;5008867;28;20033;-72
2022/03/02 06:18:24;;;;;;;24.98;16.17;;;;;;;1.72;67.94;99736.50;4995320;28;20494;-77
2022/03/02 06:20:51;;;;;;;22.27;12.18;;;;;;;1.79;68.09;99753.22;4995335;28;20053;-74
2022/03/02 06:23:18;;;;;;;21.23;12.73;;;;;;;1.79;67.99;99747.97;5011581;28;20050;-73
2022/03/02 06:25:44;;;;;;;20.23;12.32;;;;;;;1.79;68.20;99753.22;5009654;28;20033;-74
2022/03/02 06:28:12;;;;;;;16.73;12.30;;;;;;;1.75;68.20;99738.78;4982951;28;20423;-74
2022/03/02 06:30:38;;;;;;;21.52;12.90;;;;;;;1.82;68.07;99757.34;4993306;28;20048;-74
2022/03/02 06:33:03;;;;;;;18.67;11.77;;;;;;;1.82;68.59;99752.06;5011195;28;20037;-74
2022/03/02 06:35:28;;;;;;;21.27;12.45;;;;;;;1.81;68.62;99756.53;4993167;28;20160;-74
2022/03/02 06:37:54;;;;;;;18.85;12.60;;;;;;;1.82;68.32;99754.69;5012550;28;20087;-73
2022/03/02 06:40:19;;;;;;;17.90;11.18;;;;;;;1.81;68.55;99751.28;5009631;28;20099;-74
2022/03/02 06:43:00;;;;;;;16.88;11.70;;;;;;;1.83;68.56;99753.72;4977915;28;20026;-73
2022/03/02 06:45:47;;;;;;;20.80;12.85;;;;;;;1.81;68.41;99748.66;4986324;28;20030;-73
2022/03/02 06:48:17;;;;;;;17.23;12.48;;;;;;;1.83;68.56;99751.09;5007512;28;20030;-73
2022/03/02 06:50:44;;;;;;;19.92;11.88;;;;;;;1.81;68.68;99735.47;5013146;28;20506;-73
2022/03/02 06:53:14;;;;;;;20.55;13.80;;;;;;;1.85;68.78;99738.59;5010880;28;20036;-73
2022/03/02 06:55:41;;;;;;;18.05;12.43;;;;;;;1.86;68.88;99738.41;5008320;28;20037;-73
2022/03/02 06:58:12;;;;;;;22.98;12.57;;;;;;;1.85;69.12;99728.88;5015329;28;20029;-73
2022/03/02 07:00:38;;;;;;;16.95;12.75;;;;;;;1.87;68.70;99726.06;5011202;28;20040;-73
2022/03/02 07:03:11;;;;;;;18.63;12.13;;;;;;;1.87;67.96;99732.16;4995349;28;20041;-73
2022/03/02 07:05:37;;;;;;;21.88;12.43;;;;;;;1.89;68.49;99735.44;5003618;28;21652;-73
2022/03/02 07:08:04;;;;;;;20.70;12.93;;;;;;;1.94;68.38;99734.94;5002155;28;20414;-73
2022/03/02 07:10:34;;;;;;;26.65;13.98;;;;;;;1.94;68.15;99735.75;4993912;28;20034;-73
2022/03/02 07:13:01;;;;;;;21.60;13.38;;;;;;;1.95;68.36;99731.28;5011186;28;20037;-73
2022/03/02 07:15:28;;;;;;;17.42;12.30;;;;;;;1.96;68.26;99728.50;5006163;28;20080;-74
2022/03/02 07:17:53;;;;;;;17.50;13.02;;;;;;;1.98;68.64;99733.59;4993746;28;20026;-74
2022/03/02 07:20:20;;;;;;;24.15;13.65;;;;;;;2.02;67.89;99730.44;4991487;28;20514;-73
2022/03/02 07:22:52;;;;;;;22.23;12.45;;;;;;;2.02;68.27;99724.34;5009349;28;20033;-74
2022/03/02 07:25:41;;;;;;;18.23;12.23;;;;;;;1.96;68.01;99725.88;5019523;28;20520;-73
2022/03/02 07:28:10;;;;;;;22.42;13.60;;;;;;;2.03;68.29;99734.69;4984587;28;20049;-74
2022/03/02 07:30:36;;;;;;;22.20;12.57;;;;;;;2.08;68.11;99739.44;4999219;28;20030;-74
2022/03/02 07:33:03;;;;;;;21.40;12.23;;;;;;;2.09;68.00;99746.38;5015182;28;20029;-74
2022/03/02 07:35:37;;;;;;;19.85;11.98;;;;;;;2.06;67.82;99729.09;4997789;28;20030;-73
2022/03/02 07:38:07;;;;;;;19.80;12.68;;;;;;;2.12;68.51;99748.66;5013150;28;20064;-74
2022/03/02 07:40:33;;;;;;;18.77;12.00;;;;;;;2.10;68.53;99740.94;5006850;28;20044;-74
2022/03/02 07:42:59;;;;;;;19.20;12.95;;;;;;;2.11;68.36;99721.50;4994235;28;20105;-74
2022/03/02 07:45:24;;;;;;;20.10;12.82;;;;;;;2.16;68.30;99726.28;5004407;28;20064;-73
2022/03/02 07:47:50;;;;;;;22.50;12.43;;;;;;;2.17;67.97;99725.25;5002708;28;20029;-74
2022/03/02 07:50:16;;;;;;;20.85;13.20;;;;;;;2.22;67.93;99725.56;4992004;28;20117;-74
2022/03/02 07:52:51;;;;;;;19.13;12.32;;;;;;;2.24;67.38;99737.56;5012249;28;20026;-74
2022/03/02 07:55:17;;;;;;;18.80;12.88;;;;;;;2.25;67.31;99735.72;5004107;28;20026;-74
2022/03/02 07:57:44;;;;;;;19.63;12.68;;;;;;;2.26;67.63;99738.22;5008976;28;20033;-74
2022/03/02 08:00:11;;;;;;;19.63;12.38;;;;;;;2.28;68.14;99735.41;5012308;28;20025;-74
2022/03/02 08:02:38;;;;;;;21.75;12.52;;;;;;;2.29;67.38;99726.53;5011670;28;20475;-74
2022/03/02 08:05:05;;;;;;;19.52;12.75;;;;;;;2.30;67.99;99722.88;5008631;28;20036;-74
2022/03/02 08:07:30;;;;;;;19.10;13.20;;;;;;;2.35;67.77;99722.34;4994298;28;20026;-74
2022/03/02 08:09:56;;;;;;;21.83;14.15;;;;;;;2.36;67.57;99735.34;5011638;28;20084;-73
2022/03/02 08:12:26;;;;;;;19.70;11.93;;;;;;;2.36;67.69;99724.81;5010665;28;20398;-74
2022/03/02 08:14:52;;;;;;;19.33;12.73;;;;;;;2.37;67.49;99731.72;5009034;28;20038;-74
2022/03/02 08:17:19;;;;;;;22.33;12.13;;;;;;;2.32;67.76;99723.53;5010160;28;20034;-74
2022/03/02 08:19:48;;;;;;;17.05;12.10;;;;;;;2.31;67.96;99719.25;5015539;28;20025;-73
2022/03/02 08:22:16;;;;;;;17.08;12.43;;;;;;;2.38;67.60;99725.44;5017745;28;20101;-74
2022/03/02 08:24:50;;;;;;;20.48;13.85;;;;;;;2.39;67.81;99731.53;4992922;28;20022;-74
2022/03/02 08:27:15;;;;;;;16.45;11.73;;;;;;;2.34;67.65;99729.44;5014260;28;20481;-74
2022/03/02 08:29:43;;;;;;;24.83;14.07;;;;;;;2.39;67.43;99735.00;5016475;28;20052;-74
2022/03/02 08:32:10;;;;;;;23.55;12.98;;;;;;;2.41;67.46;99727.75;5011017;28;20033;-73
2022/03/02 08:34:41;;;;;;;17.58;13.20;;;;;;;2.39;67.63;99721.84;5010691;28;20053;-73
2022/03/02 08:37:07;;;;;;;18.20;12.57;;;;;;;2.44;67.97;99726.56;5012075;28;20026;-74
2022/03/02 08:39:32;;;;;;;26.88;13.25;;;;;;;2.48;68.49;99725.22;5013615;28;20033;-74
2022/03/02 08:41:57;;;;;;;21.95;12.80;;;;;;;2.48;67.76;99728.69;5007180;28;20101;-73
2022/03/02 08:44:23;;;;;;;17.58;12.38;;;;;;;2.52;67.49;99722.06;5010735;28;20037;-73
2022/03/02 08:46:48;;;;;;;24.58;14.25;;;;;;;2.56;67.92;99718.09;5008369;28;20044;-74
2022/03/02 08:49:15;;;;;;;23.77;13.45;;;;;;;2.57;67.92;99713.66;5005988;28;20030;-74
2022/03/02 08:51:41;;;;;;;24.13;12.70;;;;;;;2.61;67.57;99712.28;5006419;28;20398;-74
2022/03/02 08:54:11;;;;;;;23.70;13.52;;;;;;;2.69;67.53;99713.03;5009180;28;20393;-74
2022/03/02 08:56:38;;;;;;;16.52;12.82;;;;;;;2.69;67.21;99714.84;5017115;28;20064;-74
2022/03/02 08:59:05;;;;;;;20.65;13.15;;;;;;;2.79;66.99;99715.44;5020739;28;20025;-75
2022/03/02 09:01:31;;;;;;;22.27;14.55;;;;;;;2.70;66.68;99696.25;5015000;28;20030;-73
2022/03/02 09:04:01;;;;;;;19.77;13.27;;;;;;;2.86;67.02;99706.63;5013822;28;20044;-73
2022/03/02 09:06:30;;;;;;;22.85;13.52;;;;;;;2.86;66.72;99706.63;5013683;28;20062;-74
2022/03/02 09:08:55;;;;;;;26.58;13.70;;;;;;;2.92;66.29;99705.94;5012948;28;20095;-74
2022/03/02 09:11:21;;;;;;;21.80;13.13;;;;;;;2.95;66.03;99707.38;5009050;28;20546;-73
2022/03/02 09:13:49;;;;;;;22.92;13.70;;;;;;;3.03;65.73;99709.97;4996366;28;20030;-73
2022/03/02 09:16:15;;;;;;;21.48;13.43;;;;;;;3.04;65.84;99706.31;5009685;28;20029;-74
2022/03/02 09:18:41;;;;;;;21.10;13.43;;;;;;;3.04;65.98;99698.41;5014670;28;20478;-73
2022/03/02 09:21:07;;;;;;;19.80;13.93;;;;;;;3.14;65.56;99708.72;5012240;28;20107;-73
2022/03/02 09:23:38;;;;;;;25.30;13.32;;;;;;;3.16;65.11;99704.06;5022702;28;20037;-73
2022/03/02 09:26:12;;;;;;;21.27;12.88;;;;;;;3.19;65.32;99699.25;5016933;28;20109;-73
2022/03/02 09:28:41;;;;;;;18.60;13.18;;;;;;;3.21;65.82;99697.25;5009454;28;20487;-73
2022/03/02 09:31:08;;;;;;;20.77;14.18;;;;;;;3.27;66.25;99701.00;4997260;28;20095;-74
2022/03/02 09:33:35;;;;;;;20.33;12.30;;;;;;;3.31;66.59;99689.91;5013832;28;20815;-74
2022/03/02 09:36:10;;;;;;;23.48;12.82;;;;;;;3.34;66.54;99688.72;4996000;28;20542;-74
2022/03/02 09:38:37;;;;;;;20.75;12.93;;;;;;;3.35;66.23;99682.44;4995489;28;20552;-73
2022/03/02 09:41:07;;;;;;;23.75;12.75;;;;;;;3.39;66.17;99675.78;5013524;28;20042;-74
2022/03/02 09:43:35;;;;;;;17.23;12.00;;;;;;;3.36;66.06;99681.44;5013140;28;20371;-74
2022/03/02 09:46:10;;;;;;;19.35;13.13;;;;;;;3.39;65.62;99684.53;5014228;28;20088;-74
2022/03/02 09:48:46;;;;;;;19.63;12.05;;;;;;;3.43;65.93;99685.78;5012666;28;20029;-74
2022/03/02 09:51:19;;;;;;;19.17;12.80;;;;;;;3.48;65.78;99685.25;5012137;28;20032;-74
2022/03/02 09:53:48;;;;;;;19.17;12.38;;;;;;;3.51;65.90;99684.91;5012937;28;20390;-73
2022/03/02 09:56:15;;;;;;;21.70;13.05;;;;;;;3.54;65.97;99673.97;4995884;28;20491;-73
2022/03/02 09:58:42;;;;;;;19.70;11.70;;;;;;;3.56;66.17;99677.25;5012827;28;20041;-74
2022/03/02 10:01:17;;;;;;;23.08;14.00;;;;;;;3.65;66.07;99668.22;5010872;28;20029;-74
2022/03/02 10:03:47;;;;;;;23.25;13.40;;;;;;;3.66;65.96;99656.66;4995055;28;20030;-74
2022/03/02 10:06:16;;;;;;;19.08;12.73;;;;;;;3.74;65.61;99664.47;5004002;28;20103;-73
2022/03/02 10:08:47;;;;;;;18.23;11.63;;;;;;;3.78;65.43;99661.28;5010407;28;20045;-73
2022/03/02 10:11:15;;;;;;;19.33;11.35;;;;;;;3.85;64.83;99660.53;5014960;28;20076;-74
2022/03/02 10:13:41;;;;;;;19.10;12.02;;;;;;;3.85;64.99;99639.41;5016599;28;20061;-75
2022/03/02 10:16:09;;;;;;;20.08;13.23;;;;;;;4.01;65.24;99661.16;5004933;28;20095;-74
2022/03/02 10:18:35;;;;;;;19.33;12.65;;;;;;;4.09;65.38;99655.75;4992141;28;20404;-74
2022/03/02 10:21:03;;;;;;;19.63;12.88;;;;;;;4.16;65.43;99653.16;4999323;28;20030;-74
2022/03/02 10:23:42;;;;;;;18.95;12.45;;;;;;;4.24;65.14;99642.47;5014609;28;20128;-75
2022/03/02 10:26:16;;;;;;;19.55;12.43;;;;;;;4.29;65.14;99648.03;5012124;28;20018;-74
2022/03/02 10:29:20;;;;;;;16.23;12.48;;;;;;;4.33;64.48;99649.28;5013152;28;20026;-74
2022/03/02 10:31:45;;;;;;;18.27;12.10;;;;;;;4.42;63.65;99656.06;5012231;28;20022;-74
2022/03/02 10:34:20;;;;;;;16.77;12.23;;;;;;;4.47;63.74;99654.53;5013028;28;20036;-74
2022/03/02 10:36:46;;;;;;;18.48;11.27;;;;;;;4.51;64.35;99650.47;5017502;28;20041;-75
2022/03/02 10:39:45;;;;;;;21.95;12.25;;;;;;;4.61;63.25;99652.78;5010201;28;20033;-75
2022/03/02 10:42:26;;;;;;;18.00;11.63;;;;;;;4.76;63.92;99647.44;4974587;28;20116;-74
2022/03/02 10:45:09;;;;;;;18.88;12.00;;;;;;;4.82;63.05;99647.50;5012023;28;20036;-75
2022/03/02 10:47:41;;;;;;;19.38;11.68;;;;;;;4.94;61.65;99650.41;5003094;28;20108;-74
2022/03/02 10:50:08;;;;;;;18.40;12.00;;;;;;;5.04;61.05;99648.25;5010953;28;20025;-74
2022/03/02 10:52:39;;;;;;;20.10;11.75;;;;;;;5.11;61.11;99649.13;5006983;28;20069;-74
2022/03/02 10:55:07;;;;;;;15.65;10.63;;;;;;;5.22;60.82;99643.28;5009545;28;20161;-74
2022/03/02 10:57:33;;;;;;;17.38;11.20;;;;;;;5.32;60.26;99641.09;4996498;28;20041;-74
2022/03/02 11:00:09;;;;;;;17.65;10.80;;;;;;;5.40;60.28;99635.63;5012271;28;20044;-74
2022/03/02 11:02:40;;;;;;;15.57;10.57;;;;;;;5.52;60.01;99630.63;5090508;23;20106;-71
2022/03/02 11:05:11;;;;;;;19.45;11.10;;;;;;;5.55;59.96;99619.63;5062898;28;20044;-71
2022/03/02 11:07:37;;;;;;;18.45;11.32;;;;;;;5.69;59.13;99627.44;5061007;28;20395;-71
2022/03/02 11:10:06;;;;;;;14.27;10.82;;;;;;;5.78;59.90;99636.84;5065603;28;20044;-71
2022/03/02 11:12:32;;;;;;;14.25;10.43;;;;;;;5.78;58.76;99610.34;5062464;28;20492;-71
2022/03/02 11:15:03;;;;;;;14.52;10.60;;;;;;;5.92;58.88;99635.06;5060417;28;20123;-71
2022/03/02 11:17:29;;;;;;;16.30;10.32;;;;;;;5.99;58.24;99631.44;5066021;28;20024;-71
2022/03/02 11:19:56;;;;;;;18.35;10.00;;;;;;;6.04;58.81;99634.31;5066752;28;20074;-71
2022/03/02 11:22:24;;;;;;;22.63;10.85;;;;;;;6.10;56.54;99626.56;5066603;28;20024;-71
2022/03/02 11:24:57;;;;;;;18.67;10.57;;;;;;;6.18;56.09;99621.09;5057174;28;20029;-71